Terminal Aerodrome Forecast
Issued by NWS Binghamton, NY

Home | Current Version | Previous Version | Text Only | Print | Product List | Glossary On
Versions: 1 2 3 4 5 6 7 8 9 10 11 12 13 14 15 16
000
FTUS41 KBGM 270800 AAA
TAFSYR
TAF AMD
KSYR 270833Z 2709/2806 25004KT P6SM BKN040
     FM271500 31007KT P6SM SCT040
     FM280000 31004KT P6SM FEW060=

USA.gov is the U.S. government's official web portal to all federal, state and local government web resources and services.